sensor_id;sensor_type;location;lat;lon;timestamp;pressure;altitude;pressure_sealevel;temperature;humidity
4981;BME280;2507;50.392;7.482;2022-12-29T00:01:47;99905.97;;;13.91;68.22
4981;BME280;2507;50.392;7.482;2022-12-29T00:04:13;99915.47;;;13.84;68.37
4981;BME280;2507;50.392;7.482;2022-12-29T00:06:39;99907.25;;;13.87;68.93
4981;BME280;2507;50.392;7.482;2022-12-29T00:09:04;99899.38;;;14.05;67.71
4981;BME280;2507;50.392;7.482;2022-12-29T00:11:29;99901.41;;;14.11;67.38
4981;BME280;2507;50.392;7.482;2022-12-29T00:13:55;99905.16;;;14.18;67.82
4981;BME280;2507;50.392;7.482;2022-12-29T00:16:43;99903.53;;;14.07;68.21
4981;BME280;2507;50.392;7.482;2022-12-29T00:19:09;99895.00;;;13.96;68.93
4981;BME280;2507;50.392;7.482;2022-12-29T00:21:53;99888.59;;;13.98;68.80
4981;BME280;2507;50.392;7.482;2022-12-29T00:24:37;99880.75;;;13.89;69.35
4981;BME280;2507;50.392;7.482;2022-12-29T00:27:21;99870.88;;;13.91;69.49
4981;BME280;2507;50.392;7.482;2022-12-29T00:30:13;99868.53;;;13.88;69.72
4981;BME280;2507;50.392;7.482;2022-12-29T00:32:57;99863.94;;;13.90;69.68
4981;BME280;2507;50.392;7.482;2022-12-29T00:35:54;99867.69;;;13.87;70.00
4981;BME280;2507;50.392;7.482;2022-12-29T00:38:21;99862.91;;;13.73;70.49
4981;BME280;2507;50.392;7.482;2022-12-29T00:41:04;99864.44;;;13.76;70.51
4981;BME280;2507;50.392;7.482;2022-12-29T00:43:48;99853.56;;;13.79;70.38
4981;BME280;2507;50.392;7.482;2022-12-29T00:46:36;99842.72;;;13.82;70.51
4981;BME280;2507;50.392;7.482;2022-12-29T00:49:03;99843.03;;;13.79;70.69
4981;BME280;2507;50.392;7.482;2022-12-29T00:51:47;99840.19;;;13.90;70.41
4981;BME280;2507;50.392;7.482;2022-12-29T00:54:13;99844.72;;;13.80;70.74
4981;BME280;2507;50.392;7.482;2022-12-29T00:56:38;99834.63;;;13.66;71.50
4981;BME280;2507;50.392;7.482;2022-12-29T00:59:06;99832.78;;;13.76;71.34
4981;BME280;2507;50.392;7.482;2022-12-29T01:01:32;99837.00;;;13.69;71.54
4981;BME280;2507;50.392;7.482;2022-12-29T01:03:58;99830.56;;;13.71;71.64
4981;BME280;2507;50.392;7.482;2022-12-29T01:06:24;99838.34;;;13.73;71.35
4981;BME280;2507;50.392;7.482;2022-12-29T01:08:49;99831.56;;;13.70;71.51
4981;BME280;2507;50.392;7.482;2022-12-29T01:11:35;99832.69;;;13.68;71.55
4981;BME280;2507;50.392;7.482;2022-12-29T01:14:00;99836.31;;;13.67;70.60
4981;BME280;2507;50.392;7.482;2022-12-29T01:16:25;99823.13;;;13.67;71.67
4981;BME280;2507;50.392;7.482;2022-12-29T01:18:51;99828.94;;;13.70;71.75
4981;BME280;2507;50.392;7.482;2022-12-29T01:21:16;99842.94;;;13.71;71.67
4981;BME280;2507;50.392;7.482;2022-12-29T01:23:41;99826.97;;;13.72;71.60
4981;BME280;2507;50.392;7.482;2022-12-29T01:26:11;99841.81;;;13.73;71.61
4981;BME280;2507;50.392;7.482;2022-12-29T01:28:36;99832.69;;;13.68;71.96
4981;BME280;2507;50.392;7.482;2022-12-29T01:31:05;99823.34;;;13.73;71.56
4981;BME280;2507;50.392;7.482;2022-12-29T01:33:30;99829.63;;;13.72;71.75
4981;BME280;2507;50.392;7.482;2022-12-29T01:36:06;99830.53;;;13.81;71.21
4981;BME280;2507;50.392;7.482;2022-12-29T01:38:33;99824.25;;;13.82;71.15
4981;BME280;2507;50.392;7.482;2022-12-29T01:40:58;99814.41;;;13.84;71.02
4981;BME280;2507;50.392;7.482;2022-12-29T01:43:52;99817.13;;;13.92;70.38
4981;BME280;2507;50.392;7.482;2022-12-29T01:46:31;99815.03;;;13.95;69.90
4981;BME280;2507;50.392;7.482;2022-12-29T01:51:36;99811.97;;;14.00;69.86
4981;BME280;2507;50.392;7.482;2022-12-29T01:54:05;99807.22;;;14.03;69.46
4981;BME280;2507;50.392;7.482;2022-12-29T01:56:33;99812.84;;;14.08;69.12
4981;BME280;2507;50.392;7.482;2022-12-29T01:59:03;99810.06;;;14.10;69.06
4981;BME280;2507;50.392;7.482;2022-12-29T02:01:30;99809.47;;;14.16;69.20
4981;BME280;2507;50.392;7.482;2022-12-29T02:03:55;99825.59;;;14.13;69.16
4981;BME280;2507;50.392;7.482;2022-12-29T02:06:23;99811.72;;;14.11;69.09
4981;BME280;2507;50.392;7.482;2022-12-29T02:08:53;99799.50;;;14.10;69.07
4981;BME280;2507;50.392;7.482;2022-12-29T02:11:21;99809.69;;;14.22;68.87
4981;BME280;2507;50.392;7.482;2022-12-29T02:13:48;99803.84;;;14.28;68.33
4981;BME280;2507;50.392;7.482;2022-12-29T02:16:28;99798.91;;;14.16;68.74
4981;BME280;2507;50.392;7.482;2022-12-29T02:19:10;99792.06;;;14.05;69.35
4981;BME280;2507;50.392;7.482;2022-12-29T02:27:28;99790.44;;;13.95;70.35
4981;BME280;2507;50.392;7.482;2022-12-29T02:30:09;99779.44;;;13.82;71.23
4981;BME280;2507;50.392;7.482;2022-12-29T02:32:51;99774.94;;;13.74;71.86
4981;BME280;2507;50.392;7.482;2022-12-29T02:35:33;99774.09;;;13.74;71.85
4981;BME280;2507;50.392;7.482;2022-12-29T02:38:21;99776.94;;;13.80;72.01
4981;BME280;2507;50.392;7.482;2022-12-29T02:40:53;99772.81;;;13.78;71.54
4981;BME280;2507;50.392;7.482;2022-12-29T02:43:34;99769.13;;;13.88;70.80
4981;BME280;2507;50.392;7.482;2022-12-29T02:51:27;99760.59;;;13.77;71.06
4981;BME280;2507;50.392;7.482;2022-12-29T02:53:55;99746.66;;;13.84;70.81
4981;BME280;2507;50.392;7.482;2022-12-29T02:56:40;99756.69;;;13.81;71.03
4981;BME280;2507;50.392;7.482;2022-12-29T02:59:05;99741.53;;;13.83;71.45
4981;BME280;2507;50.392;7.482;2022-12-29T03:04:32;99753.47;;;13.87;73.02
4981;BME280;2507;50.392;7.482;2022-12-29T03:07:35;99744.78;;;13.77;73.68
4981;BME280;2507;50.392;7.482;2022-12-29T03:16:19;99744.50;;;13.35;76.10
4981;BME280;2507;50.392;7.482;2022-12-29T03:21:29;99735.41;;;13.20;76.79
4981;BME280;2507;50.392;7.482;2022-12-29T03:24:16;99732.94;;;13.18;76.46
4981;BME280;2507;50.392;7.482;2022-12-29T03:26:43;99732.56;;;13.31;75.87
4981;BME280;2507;50.392;7.482;2022-12-29T03:29:12;99731.66;;;13.22;76.22
4981;BME280;2507;50.392;7.482;2022-12-29T03:31:40;99720.50;;;13.38;75.36
4981;BME280;2507;50.392;7.482;2022-12-29T03:34:07;99723.56;;;13.33;75.07
4981;BME280;2507;50.392;7.482;2022-12-29T03:36:40;99711.06;;;13.36;74.43
4981;BME280;2507;50.392;7.482;2022-12-29T03:39:10;99721.59;;;13.36;74.61
4981;BME280;2507;50.392;7.482;2022-12-29T03:41:37;99733.78;;;13.37;74.13
4981;BME280;2507;50.392;7.482;2022-12-29T03:44:06;99729.50;;;13.36;74.55
4981;BME280;2507;50.392;7.482;2022-12-29T03:46:31;99722.09;;;13.49;73.51
4981;BME280;2507;50.392;7.482;2022-12-29T03:48:56;99715.59;;;13.43;73.66
4981;BME280;2507;50.392;7.482;2022-12-29T03:51:22;99724.78;;;13.39;73.99
4981;BME280;2507;50.392;7.482;2022-12-29T03:53:47;99723.50;;;13.43;73.49
4981;BME280;2507;50.392;7.482;2022-12-29T03:56:12;99740.28;;;13.42;73.23
4981;BME280;2507;50.392;7.482;2022-12-29T03:58:38;99724.09;;;13.55;72.85
4981;BME280;2507;50.392;7.482;2022-12-29T04:01:03;99714.03;;;13.50;72.90
4981;BME280;2507;50.392;7.482;2022-12-29T04:03:28;99723.84;;;13.58;72.42
4981;BME280;2507;50.392;7.482;2022-12-29T04:05:53;99727.63;;;13.46;73.23
4981;BME280;2507;50.392;7.482;2022-12-29T04:08:19;99732.69;;;13.57;72.95
4981;BME280;2507;50.392;7.482;2022-12-29T04:10:44;99713.81;;;13.61;72.55
4981;BME280;2507;50.392;7.482;2022-12-29T04:13:09;99722.16;;;13.57;72.93
4981;BME280;2507;50.392;7.482;2022-12-29T04:15:34;99726.69;;;13.47;72.96
4981;BME280;2507;50.392;7.482;2022-12-29T04:18:00;99725.00;;;13.46;73.30
4981;BME280;2507;50.392;7.482;2022-12-29T04:20:25;99719.97;;;13.52;73.78
4981;BME280;2507;50.392;7.482;2022-12-29T04:23:09;99728.56;;;13.54;73.40
4981;BME280;2507;50.392;7.482;2022-12-29T04:25:34;99724.09;;;13.37;74.50
4981;BME280;2507;50.392;7.482;2022-12-29T04:27:59;99724.56;;;13.32;75.03
4981;BME280;2507;50.392;7.482;2022-12-29T04:30:25;99718.97;;;13.36;74.85
4981;BME280;2507;50.392;7.482;2022-12-29T04:32:50;99711.91;;;13.36;74.63
4981;BME280;2507;50.392;7.482;2022-12-29T04:35:15;99710.41;;;13.51;74.28
4981;BME280;2507;50.392;7.482;2022-12-29T04:37:41;99714.09;;;13.41;74.82
4981;BME280;2507;50.392;7.482;2022-12-29T04:40:07;99720.63;;;13.37;75.41
4981;BME280;2507;50.392;7.482;2022-12-29T04:42:32;99711.75;;;13.38;74.78
4981;BME280;2507;50.392;7.482;2022-12-29T04:44:57;99710.56;;;13.50;74.38
4981;BME280;2507;50.392;7.482;2022-12-29T04:47:23;99714.19;;;13.66;73.07
4981;BME280;2507;50.392;7.482;2022-12-29T04:49:48;99713.59;;;13.72;72.37
4981;BME280;2507;50.392;7.482;2022-12-29T04:52:14;99714.88;;;13.68;72.76
4981;BME280;2507;50.392;7.482;2022-12-29T04:54:39;99718.47;;;13.50;72.80
4981;BME280;2507;50.392;7.482;2022-12-29T04:57:04;99724.47;;;13.42;72.76
4981;BME280;2507;50.392;7.482;2022-12-29T04:59:30;99718.31;;;13.51;72.52
4981;BME280;2507;50.392;7.482;2022-12-29T05:01:55;99719.59;;;13.47;73.04
4981;BME280;2507;50.392;7.482;2022-12-29T05:04:20;99712.06;;;13.52;72.79
4981;BME280;2507;50.392;7.482;2022-12-29T05:06:45;99705.22;;;13.59;72.45
4981;BME280;2507;50.392;7.482;2022-12-29T05:09:11;99713.88;;;13.52;72.41
4981;BME280;2507;50.392;7.482;2022-12-29T05:11:36;99707.34;;;13.56;72.36
4981;BME280;2507;50.392;7.482;2022-12-29T05:14:01;99716.59;;;13.60;71.82
4981;BME280;2507;50.392;7.482;2022-12-29T05:16:26;99719.38;;;13.58;72.26
4981;BME280;2507;50.392;7.482;2022-12-29T05:18:52;99719.25;;;13.60;72.04
4981;BME280;2507;50.392;7.482;2022-12-29T05:21:17;99721.34;;;13.56;72.29
4981;BME280;2507;50.392;7.482;2022-12-29T05:23:42;99718.41;;;13.59;72.23
4981;BME280;2507;50.392;7.482;2022-12-29T05:26:07;99723.16;;;13.56;72.48
4981;BME280;2507;50.392;7.482;2022-12-29T05:28:33;99716.88;;;13.57;72.27
4981;BME280;2507;50.392;7.482;2022-12-29T05:30:58;99717.66;;;13.67;71.85
4981;BME280;2507;50.392;7.482;2022-12-29T05:33:23;99710.50;;;13.59;71.80
4981;BME280;2507;50.392;7.482;2022-12-29T05:35:48;99716.13;;;13.64;71.77
4981;BME280;2507;50.392;7.482;2022-12-29T05:38:14;99713.28;;;13.58;72.49
4981;BME280;2507;50.392;7.482;2022-12-29T05:40:39;99697.09;;;13.70;72.20
4981;BME280;2507;50.392;7.482;2022-12-29T05:43:04;99714.88;;;13.86;71.18
4981;BME280;2507;50.392;7.482;2022-12-29T05:45:30;99704.03;;;13.89;70.83
4981;BME280;2507;50.392;7.482;2022-12-29T05:47:55;99703.72;;;13.74;71.17
4981;BME280;2507;50.392;7.482;2022-12-29T05:50:20;99706.75;;;13.79;70.83
4981;BME280;2507;50.392;7.482;2022-12-29T05:52:45;99710.22;;;13.80;71.46
4981;BME280;2507;50.392;7.482;2022-12-29T05:55:11;99700.41;;;13.72;70.71
4981;BME280;2507;50.392;7.482;2022-12-29T05:57:36;99700.78;;;13.60;71.20
4981;BME280;2507;50.392;7.482;2022-12-29T06:00:04;99703.84;;;13.55;71.73
4981;BME280;2507;50.392;7.482;2022-12-29T06:02:30;99703.63;;;13.66;71.30
4981;BME280;2507;50.392;7.482;2022-12-29T06:04:55;99700.03;;;13.67;71.32
4981;BME280;2507;50.392;7.482;2022-12-29T06:07:20;99704.38;;;13.59;71.84
4981;BME280;2507;50.392;7.482;2022-12-29T06:09:45;99694.31;;;13.54;72.42
4981;BME280;2507;50.392;7.482;2022-12-29T06:12:11;99695.50;;;13.60;71.90
4981;BME280;2507;50.392;7.482;2022-12-29T06:14:36;99692.78;;;13.52;72.25
4981;BME280;2507;50.392;7.482;2022-12-29T06:17:01;99688.63;;;13.49;72.27
4981;BME280;2507;50.392;7.482;2022-12-29T06:19:26;99685.19;;;13.49;72.54
4981;BME280;2507;50.392;7.482;2022-12-29T06:21:52;99683.06;;;13.52;72.24
4981;BME280;2507;50.392;7.482;2022-12-29T06:24:18;99700.69;;;13.52;72.43
4981;BME280;2507;50.392;7.482;2022-12-29T06:26:43;99694.47;;;13.53;72.42
4981;BME280;2507;50.392;7.482;2022-12-29T06:29:08;99682.63;;;13.74;71.36
4981;BME280;2507;50.392;7.482;2022-12-29T06:31:34;99681.59;;;13.67;71.79
4981;BME280;2507;50.392;7.482;2022-12-29T06:33:59;99686.47;;;13.62;71.94
4981;BME280;2507;50.392;7.482;2022-12-29T06:36:24;99686.22;;;13.73;71.50
4981;BME280;2507;50.392;7.482;2022-12-29T06:38:50;99696.25;;;13.70;71.32
4981;BME280;2507;50.392;7.482;2022-12-29T06:41:17;99697.94;;;13.71;71.67
4981;BME280;2507;50.392;7.482;2022-12-29T06:43:43;99690.63;;;13.65;72.15
4981;BME280;2507;50.392;7.482;2022-12-29T06:46:08;99686.63;;;13.61;72.35
4981;BME280;2507;50.392;7.482;2022-12-29T06:48:33;99695.63;;;13.58;73.19
4981;BME280;2507;50.392;7.482;2022-12-29T06:50:59;99685.78;;;13.60;73.44
4981;BME280;2507;50.392;7.482;2022-12-29T06:53:24;99695.03;;;13.64;72.98
4981;BME280;2507;50.392;7.482;2022-12-29T06:55:49;99690.56;;;13.74;72.25
4981;BME280;2507;50.392;7.482;2022-12-29T06:58:15;99705.31;;;13.67;72.20
4981;BME280;2507;50.392;7.482;2022-12-29T07:00:40;99701.31;;;13.63;72.70
4981;BME280;2507;50.392;7.482;2022-12-29T07:03:06;99699.88;;;13.69;72.78
4981;BME280;2507;50.392;7.482;2022-12-29T07:05:31;99706.50;;;13.55;73.32
4981;BME280;2507;50.392;7.482;2022-12-29T07:07:58;99712.44;;;13.57;73.49
4981;BME280;2507;50.392;7.482;2022-12-29T07:10:23;99708.22;;;13.64;73.41
4981;BME280;2507;50.392;7.482;2022-12-29T07:12:48;99720.41;;;13.48;73.93
4981;BME280;2507;50.392;7.482;2022-12-29T07:15:14;99714.63;;;13.44;74.22
4981;BME280;2507;50.392;7.482;2022-12-29T07:17:39;99736.22;;;13.48;74.54
4981;BME280;2507;50.392;7.482;2022-12-29T07:20:05;99740.28;;;13.42;75.30
4981;BME280;2507;50.392;7.482;2022-12-29T07:22:31;99757.59;;;13.27;76.98
4981;BME280;2507;50.392;7.482;2022-12-29T07:24:56;99754.69;;;13.20;78.03
4981;BME280;2507;50.392;7.482;2022-12-29T07:27:22;99759.75;;;13.04;79.28
4981;BME280;2507;50.392;7.482;2022-12-29T07:29:47;99768.88;;;13.00;80.03
4981;BME280;2507;50.392;7.482;2022-12-29T07:32:12;99773.47;;;12.98;80.08
4981;BME280;2507;50.392;7.482;2022-12-29T07:34:37;99769.06;;;12.89;79.40
4981;BME280;2507;50.392;7.482;2022-12-29T07:37:04;99782.81;;;12.83;79.72
4981;BME280;2507;50.392;7.482;2022-12-29T07:39:30;99795.53;;;12.88;80.00
4981;BME280;2507;50.392;7.482;2022-12-29T07:41:55;99805.22;;;12.97;79.23
4981;BME280;2507;50.392;7.482;2022-12-29T07:44:20;99806.59;;;13.10;78.80
4981;BME280;2507;50.392;7.482;2022-12-29T07:46:46;99785.22;;;13.13;77.46
4981;BME280;2507;50.392;7.482;2022-12-29T07:49:11;99775.13;;;13.09;77.86
4981;BME280;2507;50.392;7.482;2022-12-29T07:51:36;99766.63;;;13.15;76.75
4981;BME280;2507;50.392;7.482;2022-12-29T07:54:02;99755.28;;;13.14;76.25
4981;BME280;2507;50.392;7.482;2022-12-29T07:56:27;99760.50;;;13.24;75.98
4981;BME280;2507;50.392;7.482;2022-12-29T07:58:52;99768.50;;;13.05;73.44
4981;BME280;2507;50.392;7.482;2022-12-29T08:01:18;99766.81;;;13.04;71.18
4981;BME280;2507;50.392;7.482;2022-12-29T08:03:43;99789.72;;;13.03;70.53
4981;BME280;2507;50.392;7.482;2022-12-29T08:06:10;99797.03;;;13.09;71.06
4981;BME280;2507;50.392;7.482;2022-12-29T08:08:35;99805.38;;;13.05;70.16
4981;BME280;2507;50.392;7.482;2022-12-29T08:11:00;99819.88;;;13.18;69.64
4981;BME280;2507;50.392;7.482;2022-12-29T08:13:26;99818.75;;;13.21;69.36
4981;BME280;2507;50.392;7.482;2022-12-29T08:15:51;99821.41;;;13.21;68.99
4981;BME280;2507;50.392;7.482;2022-12-29T08:18:16;99829.06;;;13.14;68.35
4981;BME280;2507;50.392;7.482;2022-12-29T08:20:41;99827.53;;;13.12;66.39
4981;BME280;2507;50.392;7.482;2022-12-29T08:23:07;99837.75;;;13.15;65.74
4981;BME280;2507;50.392;7.482;2022-12-29T08:25:32;99856.03;;;13.26;65.59
4981;BME280;2507;50.392;7.482;2022-12-29T08:27:58;99851.22;;;13.21;65.20
4981;BME280;2507;50.392;7.482;2022-12-29T08:30:23;99839.91;;;13.39;64.92
4981;BME280;2507;50.392;7.482;2022-12-29T08:32:48;99855.91;;;13.55;64.01
4981;BME280;2507;50.392;7.482;2022-12-29T08:35:14;99851.78;;;13.52;63.94
4981;BME280;2507;50.392;7.482;2022-12-29T08:37:39;99872.16;;;13.60;63.92
4981;BME280;2507;50.392;7.482;2022-12-29T08:40:05;99875.03;;;13.66;63.59
4981;BME280;2507;50.392;7.482;2022-12-29T08:42:31;99872.28;;;13.58;64.03
4981;BME280;2507;50.392;7.482;2022-12-29T08:44:58;99871.66;;;13.74;63.52
4981;BME280;2507;50.392;7.482;2022-12-29T08:47:23;99877.81;;;13.92;62.96
4981;BME280;2507;50.392;7.482;2022-12-29T08:49:49;99884.63;;;14.12;62.00
4981;BME280;2507;50.392;7.482;2022-12-29T08:52:14;99893.59;;;14.01;62.62
4981;BME280;2507;50.392;7.482;2022-12-29T08:54:39;99890.44;;;14.15;62.54
4981;BME280;2507;50.392;7.482;2022-12-29T08:57:05;99892.75;;;14.18;62.13
4981;BME280;2507;50.392;7.482;2022-12-29T08:59:30;99885.81;;;14.27;62.31
4981;BME280;2507;50.392;7.482;2022-12-29T09:01:55;99897.34;;;14.44;62.36
4981;BME280;2507;50.392;7.482;2022-12-29T09:04:21;99890.41;;;14.60;61.87
4981;BME280;2507;50.392;7.482;2022-12-29T09:06:48;99882.34;;;14.62;61.18
4981;BME280;2507;50.392;7.482;2022-12-29T09:09:14;99885.19;;;14.68;61.54
4981;BME280;2507;50.392;7.482;2022-12-29T09:11:39;99890.72;;;14.57;61.56
4981;BME280;2507;50.392;7.482;2022-12-29T09:14:04;99899.63;;;14.56;62.17
4981;BME280;2507;50.392;7.482;2022-12-29T09:16:30;99900.91;;;14.52;61.78
4981;BME280;2507;50.392;7.482;2022-12-29T09:18:55;99903.91;;;14.57;62.24
4981;BME280;2507;50.392;7.482;2022-12-29T09:21:20;99897.88;;;14.65;61.66
4981;BME280;2507;50.392;7.482;2022-12-29T09:23:47;99903.75;;;14.59;62.35
4981;BME280;2507;50.392;7.482;2022-12-29T09:26:12;99905.72;;;14.74;61.27
4981;BME280;2507;50.392;7.482;2022-12-29T09:28:38;99908.22;;;14.76;61.87
4981;BME280;2507;50.392;7.482;2022-12-29T09:31:03;99906.53;;;14.75;61.49
4981;BME280;2507;50.392;7.482;2022-12-29T09:33:29;99903.69;;;14.68;61.72
4981;BME280;2507;50.392;7.482;2022-12-29T09:35:57;99908.16;;;14.50;61.82
4981;BME280;2507;50.392;7.482;2022-12-29T09:38:24;99917.50;;;14.62;61.90
4981;BME280;2507;50.392;7.482;2022-12-29T09:40:52;99913.66;;;14.74;61.38
4981;BME280;2507;50.392;7.482;2022-12-29T09:43:28;99922.25;;;14.59;61.74
4981;BME280;2507;50.392;7.482;2022-12-29T09:46:23;99912.84;;;14.56;61.16
4981;BME280;2507;50.392;7.482;2022-12-29T09:49:40;99909.94;;;14.50;61.46
4981;BME280;2507;50.392;7.482;2022-12-29T09:51:43;99917.28;;;14.56;61.00
4981;BME280;2507;50.392;7.482;2022-12-29T09:54:23;99912.72;;;14.66;60.69
4981;BME280;2507;50.392;7.482;2022-12-29T09:56:50;99907.47;;;14.83;60.46
4981;BME280;2507;50.392;7.482;2022-12-29T09:59:20;99922.47;;;14.83;60.51
4981;BME280;2507;50.392;7.482;2022-12-29T10:04:50;99940.28;;;14.81;60.81
4981;BME280;2507;50.392;7.482;2022-12-29T10:07:34;99927.38;;;14.78;61.22
4981;BME280;2507;50.392;7.482;2022-12-29T10:10:14;99925.63;;;14.86;61.16
4981;BME280;2507;50.392;7.482;2022-12-29T10:12:58;99936.56;;;15.09;60.28
4981;BME280;2507;50.392;7.482;2022-12-29T10:23:49;99928.16;;;15.13;60.44
4981;BME280;2507;50.392;7.482;2022-12-29T10:26:27;99914.38;;;15.27;60.39
4981;BME280;2507;50.392;7.482;2022-12-29T10:28:57;99922.69;;;15.32;60.37
4981;BME280;2507;50.392;7.482;2022-12-29T10:31:32;99917.59;;;15.39;60.05
4981;BME280;2507;50.392;7.482;2022-12-29T10:34:02;99937.78;;;15.14;60.77
4981;BME280;2507;50.392;7.482;2022-12-29T10:36:35;99918.75;;;14.93;61.67
4981;BME280;2507;50.392;7.482;2022-12-29T10:39:32;99943.38;;;14.94;61.74
4981;BME280;2507;50.392;7.482;2022-12-29T10:42:11;99930.16;;;14.94;61.81
4981;BME280;2507;50.392;7.482;2022-12-29T10:44:38;99939.06;;;15.10;61.90
4981;BME280;2507;50.392;7.482;2022-12-29T10:47:09;99943.56;;;15.18;62.23
4981;BME280;2507;50.392;7.482;2022-12-29T10:49:40;99944.78;;;15.23;61.97
4981;BME280;2507;50.392;7.482;2022-12-29T10:52:06;99945.69;;;15.58;62.15
4981;BME280;2507;50.392;7.482;2022-12-29T10:54:54;99941.34;;;15.82;60.74
4981;BME280;2507;50.392;7.482;2022-12-29T10:57:28;99947.22;;;15.68;60.12
4981;BME280;2507;50.392;7.482;2022-12-29T10:59:58;99952.28;;;15.54;60.74
4981;BME280;2507;50.392;7.482;2022-12-29T11:05:01;99951.78;;;15.32;60.05
4981;BME280;2507;50.392;7.482;2022-12-29T11:07:29;99948.72;;;15.19;60.28
4981;BME280;2507;50.392;7.482;2022-12-29T11:10:16;99949.63;;;15.10;59.89
4981;BME280;2507;50.392;7.482;2022-12-29T11:12:54;99944.34;;;15.10;59.89
4981;BME280;2507;50.392;7.482;2022-12-29T11:15:20;99954.22;;;15.08;59.89
4981;BME280;2507;50.392;7.482;2022-12-29T11:17:56;99959.56;;;15.16;59.47
4981;BME280;2507;50.392;7.482;2022-12-29T11:20:37;99966.84;;;15.14;59.13
4981;BME280;2507;50.392;7.482;2022-12-29T11:23:05;99969.78;;;15.11;59.03
4981;BME280;2507;50.392;7.482;2022-12-29T11:25:30;99973.66;;;14.99;58.39
4981;BME280;2507;50.392;7.482;2022-12-29T11:28:14;99971.59;;;14.93;59.26
4981;BME280;2507;50.392;7.482;2022-12-29T11:30:40;99970.91;;;14.91;58.90
4981;BME280;2507;50.392;7.482;2022-12-29T11:33:05;99965.19;;;14.96;58.90
4981;BME280;2507;50.392;7.482;2022-12-29T11:35:35;99980.19;;;15.13;58.18
4981;BME280;2507;50.392;7.482;2022-12-29T11:38:02;99969.50;;;15.14;57.76
4981;BME280;2507;50.392;7.482;2022-12-29T11:40:29;99976.22;;;15.09;57.53
4981;BME280;2507;50.392;7.482;2022-12-29T11:43:00;99987.91;;;15.06;57.24
4981;BME280;2507;50.392;7.482;2022-12-29T11:45:30;99980.25;;;15.21;57.16
4981;BME280;2507;50.392;7.482;2022-12-29T11:48:13;99976.56;;;15.14;56.91
4981;BME280;2507;50.392;7.482;2022-12-29T11:50:42;99992.44;;;14.96;56.30
4981;BME280;2507;50.392;7.482;2022-12-29T11:53:23;99982.31;;;15.09;56.55
4981;BME280;2507;50.392;7.482;2022-12-29T11:56:36;99986.53;;;15.02;56.57
4981;BME280;2507;50.392;7.482;2022-12-29T11:58:42;99989.78;;;15.14;56.55
4981;BME280;2507;50.392;7.482;2022-12-29T12:01:22;99974.81;;;15.22;56.76
4981;BME280;2507;50.392;7.482;2022-12-29T12:04:12;99980.34;;;15.11;55.41
4981;BME280;2507;50.392;7.482;2022-12-29T12:06:44;99980.28;;;15.03;56.72
4981;BME280;2507;50.392;7.482;2022-12-29T12:09:19;99986.19;;;14.97;56.10
4981;BME280;2507;50.392;7.482;2022-12-29T12:11:51;99988.50;;;14.65;55.67
4981;BME280;2507;50.392;7.482;2022-12-29T12:14:27;99985.88;;;14.65;56.31
4981;BME280;2507;50.392;7.482;2022-12-29T12:20:14;99975.09;;;14.76;55.64
4981;BME280;2507;50.392;7.482;2022-12-29T12:22:48;99977.63;;;14.86;54.84
4981;BME280;2507;50.392;7.482;2022-12-29T12:25:49;99976.78;;;15.20;54.73
4981;BME280;2507;50.392;7.482;2022-12-29T12:28:32;99967.28;;;15.10;54.21
4981;BME280;2507;50.392;7.482;2022-12-29T12:31:01;99975.22;;;15.10;54.00
4981;BME280;2507;50.392;7.482;2022-12-29T12:33:41;99975.75;;;15.13;53.78
4981;BME280;2507;50.392;7.482;2022-12-29T12:36:43;99981.66;;;14.72;54.66
4981;BME280;2507;50.392;7.482;2022-12-29T12:39:27;99987.22;;;14.69;54.64
4981;BME280;2507;50.392;7.482;2022-12-29T12:48:11;99989.41;;;14.56;55.18
4981;BME280;2507;50.392;7.482;2022-12-29T12:55:57;99991.41;;;14.45;55.97
4981;BME280;2507;50.392;7.482;2022-12-29T13:04:12;99992.69;;;14.85;54.11
4981;BME280;2507;50.392;7.482;2022-12-29T13:07:02;99998.34;;;14.90;53.70
4981;BME280;2507;50.392;7.482;2022-12-29T13:09:42;99993.09;;;14.98;53.25
4981;BME280;2507;50.392;7.482;2022-12-29T13:12:22;99999.03;;;14.92;53.52
4981;BME280;2507;50.392;7.482;2022-12-29T13:20:15;99996.34;;;15.10;52.08
4981;BME280;2507;50.392;7.482;2022-12-29T13:22:58;99992.97;;;14.82;52.25
4981;BME280;2507;50.392;7.482;2022-12-29T13:25:32;100003.00;;;14.79;52.38
4981;BME280;2507;50.392;7.482;2022-12-29T13:28:26;99997.66;;;14.88;51.88
4981;BME280;2507;50.392;7.482;2022-12-29T13:31:15;100010.19;;;14.86;52.87
4981;BME280;2507;50.392;7.482;2022-12-29T13:41:43;100005.94;;;14.76;51.66
4981;BME280;2507;50.392;7.482;2022-12-29T13:44:16;100004.78;;;14.61;53.12
4981;BME280;2507;50.392;7.482;2022-12-29T13:46:44;100004.06;;;14.68;53.65
4981;BME280;2507;50.392;7.482;2022-12-29T13:49:18;100014.59;;;14.51;54.58
4981;BME280;2507;50.392;7.482;2022-12-29T13:51:56;100018.53;;;14.37;54.63
4981;BME280;2507;50.392;7.482;2022-12-29T13:54:36;100019.53;;;14.36;54.86
4981;BME280;2507;50.392;7.482;2022-12-29T13:57:28;100016.56;;;14.49;54.66
4981;BME280;2507;50.392;7.482;2022-12-29T14:00:02;100016.28;;;14.42;54.69
4981;BME280;2507;50.392;7.482;2022-12-29T14:07:42;100017.25;;;14.14;53.09
4981;BME280;2507;50.392;7.482;2022-12-29T14:10:27;100023.03;;;13.90;53.99
4981;BME280;2507;50.392;7.482;2022-12-29T14:13:23;100024.69;;;13.82;54.50
4981;BME280;2507;50.392;7.482;2022-12-29T14:15:52;100024.75;;;13.63;55.33
4981;BME280;2507;50.392;7.482;2022-12-29T14:18:21;100035.31;;;13.53;55.59
4981;BME280;2507;50.392;7.482;2022-12-29T14:21:19;100024.53;;;13.47;55.32
4981;BME280;2507;50.392;7.482;2022-12-29T14:23:49;100031.59;;;13.56;54.82
4981;BME280;2507;50.392;7.482;2022-12-29T14:28:47;100037.00;;;13.45;55.13
4981;BME280;2507;50.392;7.482;2022-12-29T14:36:36;100041.19;;;13.47;54.16
4981;BME280;2507;50.392;7.482;2022-12-29T14:39:03;100050.19;;;13.45;54.19
4981;BME280;2507;50.392;7.482;2022-12-29T14:41:30;100056.59;;;13.23;54.74
4981;BME280;2507;50.392;7.482;2022-12-29T14:46:25;100044.78;;;13.17;54.28
4981;BME280;2507;50.392;7.482;2022-12-29T14:49:14;100047.84;;;13.22;53.94
4981;BME280;2507;50.392;7.482;2022-12-29T14:51:41;100054.91;;;13.12;54.19
4981;BME280;2507;50.392;7.482;2022-12-29T14:57:19;100057.34;;;12.85;53.69
4981;BME280;2507;50.392;7.482;2022-12-29T14:59:47;100062.19;;;12.80;54.03
4981;BME280;2507;50.392;7.482;2022-12-29T15:02:16;100065.53;;;12.92;53.65
4981;BME280;2507;50.392;7.482;2022-12-29T15:04:44;100070.34;;;12.77;53.68
4981;BME280;2507;50.392;7.482;2022-12-29T15:07:11;100061.03;;;12.64;54.17
4981;BME280;2507;50.392;7.482;2022-12-29T15:09:45;100066.44;;;12.62;54.35